createdAt,value
2023-02-06T00:00:11.376Z,99035.83
2023-02-06T00:02:39.516Z,99039.41
2023-02-06T00:05:07.793Z,99040.73
2023-02-06T00:07:35.913Z,99047.52
2023-02-06T00:10:04.281Z,99048.36
2023-02-06T00:12:32.248Z,99047.48
2023-02-06T00:15:00.220Z,99048.00
2023-02-06T00:17:28.393Z,99056.56
2023-02-06T00:19:56.257Z,99057.73
2023-02-06T00:22:24.235Z,99057.92
2023-02-06T00:24:52.201Z,99054.23
2023-02-06T00:27:20.176Z,99059.02
2023-02-06T00:29:48.342Z,99061.42
2023-02-06T00:32:16.511Z,99064.29
2023-02-06T00:34:44.491Z,99065.30
2023-02-06T00:37:12.459Z,99063.27
2023-02-06T00:39:40.839Z,99065.99
2023-02-06T00:42:08.810Z,99064.61
2023-02-06T00:44:36.779Z,99066.80
2023-02-06T00:47:04.640Z,99066.27
2023-02-06T00:49:32.513Z,99060.23
2023-02-06T00:52:00.487Z,99061.85
2023-02-06T00:54:28.553Z,99063.39
2023-02-06T00:56:58.363Z,99061.22
2023-02-06T00:59:26.337Z,99068.17
2023-02-06T01:01:54.505Z,99069.54
2023-02-06T01:04:22.676Z,99070.31
2023-02-06T01:06:50.656Z,99071.57
2023-02-06T01:09:18.716Z,99069.46
2023-02-06T01:11:46.686Z,99069.09
2023-02-06T01:14:16.089Z,99068.27
2023-02-06T01:16:44.531Z,99068.12
2023-02-06T01:19:12.969Z,99068.45
2023-02-06T01:21:40.922Z,99072.23
2023-02-06T01:24:08.880Z,99073.29
2023-02-06T01:26:36.857Z,99072.08
2023-02-06T01:29:04.928Z,99073.88
2023-02-06T01:31:33.034Z,99073.67
2023-02-06T01:34:01.271Z,99076.77
2023-02-06T01:36:29.441Z,99078.09
2023-02-06T01:38:57.969Z,99074.61
2023-02-06T01:41:26.019Z,99070.65
2023-02-06T01:44:11.379Z,99065.83
2023-02-06T01:46:40.687Z,99067.66
2023-02-06T01:49:09.985Z,99068.98
2023-02-06T01:51:38.772Z,99073.16
2023-02-06T01:54:07.523Z,99074.59
2023-02-06T01:56:40.134Z,99071.88
2023-02-06T01:59:08.409Z,99069.92
2023-02-06T02:01:36.373Z,99072.34
2023-02-06T02:04:05.994Z,99078.71
2023-02-06T02:06:34.482Z,99078.27
2023-02-06T02:09:03.267Z,99074.66
2023-02-06T02:11:36.866Z,99074.73
2023-02-06T02:14:06.781Z,99079.48
2023-02-06T02:16:40.785Z,99079.20
2023-02-06T02:19:14.798Z,99078.20
2023-02-06T02:22:01.818Z,99082.39
2023-02-06T02:24:36.038Z,99082.80
2023-02-06T02:27:13.531Z,99086.23
2023-02-06T02:29:41.406Z,99090.78
2023-02-06T02:32:09.366Z,99090.98
2023-02-06T02:34:55.963Z,99091.23
2023-02-06T02:37:39.296Z,99092.19
2023-02-06T02:40:08.312Z,99095.69
2023-02-06T02:42:48.633Z,99100.77
2023-02-06T02:45:21.014Z,99102.45
2023-02-06T02:47:55.131Z,99106.95
2023-02-06T02:50:23.409Z,99112.66
2023-02-06T02:52:52.922Z,99116.81
2023-02-06T02:55:23.234Z,99118.27
2023-02-06T02:57:59.295Z,99117.66
2023-02-06T03:00:27.262Z,99126.68
2023-02-06T03:02:56.354Z,99129.69
2023-02-06T03:05:25.460Z,99129.66
2023-02-06T03:07:56.399Z,99132.17
2023-02-06T03:10:34.089Z,99130.16
2023-02-06T03:13:17.827Z,99131.38
2023-02-06T03:15:57.191Z,99131.03
2023-02-06T03:18:28.207Z,99133.04
2023-02-06T03:20:57.402Z,99127.59
2023-02-06T03:23:29.166Z,99129.96
2023-02-06T03:26:00.411Z,99128.61
2023-02-06T03:28:32.574Z,99123.23
2023-02-06T03:31:02.905Z,99117.76
2023-02-06T03:33:34.355Z,99115.37
2023-02-06T03:36:04.375Z,99115.23
2023-02-06T03:38:32.752Z,99120.23
2023-02-06T03:41:01.520Z,99122.54
2023-02-06T03:43:30.421Z,99127.23
2023-02-06T03:46:04.783Z,99131.30
2023-02-06T03:48:32.726Z,99127.58
2023-02-06T03:51:04.065Z,99126.93
2023-02-06T03:53:33.465Z,99132.36
2023-02-06T03:56:06.735Z,99135.27
2023-02-06T03:58:34.627Z,99135.52
2023-02-06T04:01:04.376Z,99137.74
2023-02-06T04:03:32.517Z,99142.96
2023-02-06T04:06:00.503Z,99143.64
2023-02-06T04:08:28.570Z,99146.70
2023-02-06T04:10:56.523Z,99145.98
2023-02-06T04:13:24.512Z,99141.81
2023-02-06T04:15:52.578Z,99143.45
2023-02-06T04:18:20.443Z,99141.16
2023-02-06T04:20:48.411Z,99141.49
2023-02-06T04:23:16.582Z,99136.19
2023-02-06T04:25:44.550Z,99130.89
2023-02-06T04:28:12.531Z,99131.83
2023-02-06T04:30:40.839Z,99129.64
2023-02-06T04:33:08.963Z,99139.04
2023-02-06T04:35:37.026Z,99141.71
2023-02-06T04:38:04.997Z,99145.39
2023-02-06T04:40:32.875Z,99151.29
2023-02-06T04:43:00.856Z,99151.53
2023-02-06T04:45:28.813Z,99154.09
2023-02-06T04:47:58.533Z,99159.19
2023-02-06T04:50:31.462Z,99153.55
2023-02-06T04:52:59.556Z,99155.83
2023-02-06T04:55:27.958Z,99161.20
2023-02-06T04:57:55.856Z,99167.39
2023-02-06T05:00:24.082Z,99172.58
2023-02-06T05:02:52.023Z,99174.00
2023-02-06T05:05:20.144Z,99179.30
2023-02-06T05:07:48.109Z,99179.98
2023-02-06T05:10:15.977Z,99179.55
2023-02-06T05:12:44.152Z,99183.80
2023-02-06T05:15:12.223Z,99183.01
2023-02-06T05:17:40.293Z,99182.38
2023-02-06T05:20:08.882Z,99185.59
2023-02-06T05:22:36.842Z,99189.27
2023-02-06T05:25:04.994Z,99189.55
2023-02-06T05:27:32.825Z,99190.06
2023-02-06T05:30:00.758Z,99192.95
2023-02-06T05:32:29.031Z,99195.18
2023-02-06T05:34:56.897Z,99197.42
2023-02-06T05:37:24.876Z,99198.30
2023-02-06T05:39:53.041Z,99196.52
2023-02-06T05:42:21.007Z,99196.96
2023-02-06T05:44:48.979Z,99200.73
2023-02-06T05:47:17.049Z,99203.48
2023-02-06T05:49:45.108Z,99210.55
2023-02-06T05:52:13.095Z,99217.73
2023-02-06T05:54:41.013Z,99220.08
2023-02-06T05:57:08.839Z,99220.80
2023-02-06T05:59:37.207Z,99224.48
2023-02-06T06:02:05.046Z,99221.48
2023-02-06T06:04:33.109Z,99222.27
2023-02-06T06:07:01.116Z,99226.07
2023-02-06T06:09:29.084Z,99224.48
2023-02-06T06:11:56.956Z,99223.50
2023-02-06T06:14:24.855Z,99226.45
2023-02-06T06:16:53.097Z,99225.34
2023-02-06T06:19:21.045Z,99226.90
2023-02-06T06:21:49.131Z,99224.59
2023-02-06T06:24:17.299Z,99220.65
2023-02-06T06:26:45.281Z,99228.02
2023-02-06T06:29:13.145Z,99228.45
2023-02-06T06:31:41.229Z,99229.22
2023-02-06T06:34:09.295Z,99233.22
2023-02-06T06:36:37.255Z,99234.82
2023-02-06T06:39:05.225Z,99235.58
2023-02-06T06:41:33.187Z,99238.06
2023-02-06T06:44:01.225Z,99238.09
2023-02-06T06:46:29.544Z,99238.02
2023-02-06T06:48:57.390Z,99239.55
2023-02-06T06:51:27.014Z,99234.48
2023-02-06T06:53:55.297Z,99235.66
2023-02-06T06:56:23.675Z,99234.58
2023-02-06T06:58:51.776Z,99239.64
2023-02-06T07:01:19.985Z,99236.61
2023-02-06T07:03:48.604Z,99232.84
2023-02-06T07:06:17.910Z,99230.83
2023-02-06T07:08:45.876Z,99230.38
2023-02-06T07:11:14.842Z,99228.02
2023-02-06T07:13:43.564Z,99233.73
2023-02-06T07:16:12.238Z,99233.58
2023-02-06T07:18:41.544Z,99234.14
2023-02-06T07:21:09.806Z,99230.92
2023-02-06T07:23:38.602Z,99235.13
2023-02-06T07:26:06.988Z,99231.54
2023-02-06T07:28:35.162Z,99230.82
2023-02-06T07:31:04.455Z,99225.67
2023-02-06T07:33:32.832Z,99224.42
2023-02-06T07:36:03.843Z,99231.41
2023-02-06T07:38:32.238Z,99234.79
2023-02-06T07:41:01.661Z,99226.98
2023-02-06T07:43:30.353Z,99226.62
2023-02-06T07:45:58.965Z,99235.42
2023-02-06T07:48:27.106Z,99238.02
2023-02-06T07:50:55.071Z,99238.08
2023-02-06T07:53:23.139Z,99238.48
2023-02-06T07:55:51.421Z,99239.92
2023-02-06T07:58:19.491Z,99243.89
2023-02-06T08:00:47.713Z,99251.05
2023-02-06T08:03:15.731Z,99250.87
2023-02-06T08:05:43.809Z,99250.76
2023-02-06T08:08:11.673Z,99251.23
2023-02-06T08:10:40.162Z,99251.10
2023-02-06T08:13:08.743Z,99255.83
2023-02-06T08:15:36.970Z,99260.48
2023-02-06T08:18:05.138Z,99265.45
2023-02-06T08:20:33.365Z,99266.86
2023-02-06T08:23:01.330Z,99266.25
2023-02-06T08:25:29.204Z,99265.08
2023-02-06T08:27:57.204Z,99267.27
2023-02-06T08:30:25.289Z,99267.52
2023-02-06T08:32:53.313Z,99266.02
2023-02-06T08:35:21.487Z,99265.17
2023-02-06T08:37:49.346Z,99265.30
2023-02-06T08:40:17.381Z,99267.52
2023-02-06T08:42:49.360Z,99261.76
2023-02-06T08:45:17.354Z,99258.48
2023-02-06T08:47:45.320Z,99257.48
2023-02-06T08:50:13.400Z,99257.48
2023-02-06T08:52:41.470Z,99250.14
2023-02-06T08:55:09.299Z,99257.05
2023-02-06T08:57:37.407Z,99256.27
2023-02-06T09:00:05.677Z,99250.39
2023-02-06T09:02:34.298Z,99251.00
2023-02-06T09:05:02.344Z,99256.73
2023-02-06T09:07:31.020Z,99260.33
2023-02-06T09:09:58.875Z,99262.73
2023-02-06T09:12:26.856Z,99265.08
2023-02-06T09:14:54.839Z,99265.09
2023-02-06T09:17:22.687Z,99260.24
2023-02-06T09:19:50.658Z,99259.11
2023-02-06T09:22:18.627Z,99272.33
2023-02-06T09:24:46.598Z,99281.51
2023-02-06T09:27:15.688Z,99273.20
2023-02-06T09:29:43.555Z,99268.43
2023-02-06T09:32:11.394Z,99268.61
2023-02-06T09:34:39.502Z,99264.70
2023-02-06T09:37:07.566Z,99269.52
2023-02-06T09:39:35.537Z,99275.17
2023-02-06T09:42:05.860Z,99274.09
2023-02-06T09:44:42.430Z,99269.36
2023-02-06T09:47:30.676Z,99269.57
2023-02-06T09:50:09.595Z,99267.23
2023-02-06T09:52:56.177Z,99272.10
2023-02-06T09:55:36.736Z,99271.48
2023-02-06T09:58:20.713Z,99271.40
2023-02-06T10:00:48.585Z,99268.96
2023-02-06T10:03:16.451Z,99268.30
2023-02-06T10:05:47.286Z,99265.26
2023-02-06T10:08:24.295Z,99261.77
2023-02-06T10:10:55.213Z,99256.73
2023-02-06T10:13:41.816Z,99250.43
2023-02-06T10:16:28.807Z,99249.77
2023-02-06T10:18:59.558Z,99252.46
2023-02-06T10:21:34.048Z,99252.25
2023-02-06T10:24:08.623Z,99248.05
2023-02-06T10:26:38.423Z,99246.79
2023-02-06T10:29:11.101Z,99245.48
2023-02-06T10:31:50.968Z,99243.29
2023-02-06T10:34:25.008Z,99242.46
2023-02-06T10:36:56.004Z,99243.52
2023-02-06T10:39:39.376Z,99248.17
2023-02-06T10:42:07.204Z,99249.42
2023-02-06T10:44:35.066Z,99253.00
2023-02-06T10:47:09.010Z,99250.95
2023-02-06T10:49:40.933Z,99250.75
2023-02-06T10:52:18.807Z,99252.46
2023-02-06T10:54:52.263Z,99249.55
2023-02-06T10:57:30.277Z,99245.14
2023-02-06T11:00:00.653Z,99246.74
2023-02-06T11:03:06.317Z,99248.38
2023-02-06T11:05:35.558Z,99244.87
2023-02-06T11:08:14.059Z,99246.34
2023-02-06T11:10:42.613Z,99242.71
2023-02-06T11:13:15.700Z,99236.48
2023-02-06T11:15:52.592Z,99238.80
2023-02-06T11:18:22.397Z,99234.89
2023-02-06T11:20:50.817Z,99232.18
2023-02-06T11:23:18.826Z,99234.92
2023-02-06T11:25:49.587Z,99235.21
2023-02-06T11:28:19.340Z,99239.07
2023-02-06T11:31:01.609Z,99237.44
2023-02-06T11:33:36.148Z,99238.44
2023-02-06T11:36:05.349Z,99235.25
2023-02-06T11:38:34.415Z,99234.48
2023-02-06T11:41:04.949Z,99228.04
2023-02-06T11:43:45.963Z,99225.87
2023-02-06T11:46:19.563Z,99225.71
2023-02-06T11:48:47.599Z,99229.28
2023-02-06T11:51:17.046Z,99227.11
2023-02-06T11:54:02.277Z,99227.23
2023-02-06T11:56:31.873Z,99229.98
2023-02-06T11:59:18.275Z,99235.11
2023-02-06T12:01:47.166Z,99234.84
2023-02-06T12:04:23.934Z,99229.66
2023-02-06T12:06:54.573Z,99228.02
2023-02-06T12:09:22.662Z,99227.44
2023-02-06T12:11:50.624Z,99225.84
2023-02-06T12:14:24.353Z,99220.52
2023-02-06T12:16:52.959Z,99216.60
2023-02-06T12:19:31.933Z,99216.79
2023-02-06T12:22:12.655Z,99219.23
2023-02-06T12:24:46.603Z,99222.09
2023-02-06T12:27:20.854Z,99224.00
2023-02-06T12:29:54.732Z,99222.55
2023-02-06T12:32:25.461Z,99219.37
2023-02-06T12:34:55.595Z,99214.05
2023-02-06T12:37:25.401Z,99216.67
2023-02-06T12:39:53.468Z,99218.94
2023-02-06T12:42:47.539Z,99218.39
2023-02-06T12:45:24.938Z,99215.20
2023-02-06T12:47:52.782Z,99213.98
2023-02-06T12:50:27.201Z,99213.52
2023-02-06T12:53:16.175Z,99214.60
2023-02-06T12:55:56.544Z,99214.20
2023-02-06T12:58:36.803Z,99209.70
2023-02-06T13:01:27.598Z,99207.83
2023-02-06T13:04:00.493Z,99212.11
2023-02-06T13:06:51.519Z,99220.14
2023-02-06T13:09:35.034Z,99219.58
2023-02-06T13:12:13.942Z,99223.36
2023-02-06T13:14:57.184Z,99222.54
2023-02-06T13:17:36.639Z,99221.66
2023-02-06T13:20:09.246Z,99224.02
2023-02-06T13:22:45.191Z,99225.55
2023-02-06T13:25:31.853Z,99224.85
2023-02-06T13:28:06.303Z,99228.49
2023-02-06T13:30:34.309Z,99233.55
2023-02-06T13:33:20.253Z,99236.98
2023-02-06T13:35:58.947Z,99239.97
2023-02-06T13:38:28.887Z,99242.23
2023-02-06T13:41:14.994Z,99241.11
2023-02-06T13:43:56.058Z,99240.44
2023-02-06T13:46:31.346Z,99244.02
2023-02-06T13:49:17.900Z,99249.70
2023-02-06T13:51:58.632Z,99248.09
2023-02-06T13:54:29.612Z,99245.05
2023-02-06T13:57:00.753Z,99250.79
2023-02-06T13:59:32.510Z,99250.72
2023-02-06T14:02:11.863Z,99248.76
2023-02-06T14:04:40.124Z,99249.13
2023-02-06T14:07:08.089Z,99250.63
2023-02-06T14:09:46.399Z,99255.10
2023-02-06T14:12:34.952Z,99261.85
2023-02-06T14:15:08.891Z,99262.51
2023-02-06T14:17:39.644Z,99263.34
2023-02-06T14:20:29.891Z,99262.85
2023-02-06T14:23:19.152Z,99263.06
2023-02-06T14:25:57.870Z,99262.00
2023-02-06T14:28:40.893Z,99256.49
2023-02-06T14:31:18.071Z,99258.44
2023-02-06T14:33:46.154Z,99257.08
2023-02-06T14:36:29.593Z,99260.20
2023-02-06T14:39:16.598Z,99261.56
2023-02-06T14:41:44.668Z,99265.55
2023-02-06T14:44:20.222Z,99266.11
2023-02-06T14:46:48.652Z,99264.64
2023-02-06T14:49:27.230Z,99265.25
2023-02-06T14:51:55.293Z,99270.52
2023-02-06T14:54:31.560Z,99270.90
2023-02-06T14:57:04.748Z,99273.27
2023-02-06T14:59:32.919Z,99275.11
2023-02-06T15:02:12.666Z,99280.88
2023-02-06T15:04:50.358Z,99279.65
2023-02-06T15:07:27.748Z,99282.35
2023-02-06T15:10:01.905Z,99286.40
2023-02-06T15:12:30.284Z,99286.33
2023-02-06T15:15:05.431Z,99287.34
2023-02-06T15:17:34.573Z,99289.45
2023-02-06T15:20:34.994Z,99293.06
2023-02-06T15:23:18.071Z,99296.42
2023-02-06T15:26:03.612Z,99295.32
2023-02-06T15:28:33.124Z,99292.67
2023-02-06T15:31:01.878Z,99289.27
2023-02-06T15:33:31.655Z,99295.14
2023-02-06T15:36:00.819Z,99297.83
2023-02-06T15:38:31.050Z,99296.31
2023-02-06T15:41:01.259Z,99293.21
2023-02-06T15:43:29.537Z,99295.83
2023-02-06T15:45:58.799Z,99300.06
2023-02-06T15:48:36.024Z,99303.20
2023-02-06T15:51:19.360Z,99303.43
2023-02-06T15:53:48.812Z,99307.66
2023-02-06T15:56:20.526Z,99310.55
2023-02-06T15:58:50.014Z,99309.47
2023-02-06T16:01:19.390Z,99315.73
2023-02-06T16:03:53.340Z,99315.91
2023-02-06T16:06:22.428Z,99322.84
2023-02-06T16:08:52.652Z,99328.52
2023-02-06T16:11:39.868Z,99330.05
2023-02-06T16:14:17.162Z,99327.08
2023-02-06T16:16:55.515Z,99334.83
2023-02-06T16:19:41.974Z,99340.19
2023-02-06T16:22:16.124Z,99342.54
2023-02-06T16:24:44.508Z,99344.45
2023-02-06T16:27:20.627Z,99348.77
2023-02-06T16:29:50.325Z,99351.42
2023-02-06T16:32:21.788Z,99356.09
2023-02-06T16:34:50.168Z,99357.16
2023-02-06T16:37:18.123Z,99357.19
2023-02-06T16:39:46.583Z,99356.04
2023-02-06T16:42:17.652Z,99361.66
2023-02-06T16:44:49.670Z,99366.80
2023-02-06T16:47:19.328Z,99363.41
2023-02-06T16:49:52.277Z,99367.36
2023-02-06T16:52:31.282Z,99373.67
2023-02-06T16:54:59.490Z,99378.63
2023-02-06T16:57:35.279Z,99377.28
2023-02-06T17:00:05.066Z,99379.48
2023-02-06T17:02:33.349Z,99382.67
2023-02-06T17:05:01.979Z,99385.49
2023-02-06T17:07:31.856Z,99383.06
2023-02-06T17:09:59.821Z,99385.01
2023-02-06T17:12:28.500Z,99390.76
2023-02-06T17:14:56.582Z,99393.80
2023-02-06T17:17:24.655Z,99394.80
2023-02-06T17:19:54.121Z,99393.23
2023-02-06T17:22:22.230Z,99393.65
2023-02-06T17:24:50.195Z,99393.31
2023-02-06T17:27:21.030Z,99395.33
2023-02-06T17:29:49.620Z,99395.69
2023-02-06T17:32:22.409Z,99399.08
2023-02-06T17:34:54.118Z,99402.83
2023-02-06T17:37:22.540Z,99403.38
2023-02-06T17:39:51.419Z,99403.05
2023-02-06T17:42:19.769Z,99402.01
2023-02-06T17:44:47.789Z,99401.30
2023-02-06T17:47:15.670Z,99399.92
2023-02-06T17:49:43.538Z,99399.34
2023-02-06T17:52:11.397Z,99398.41
2023-02-06T17:54:39.434Z,99397.15
2023-02-06T17:57:07.529Z,99395.58
2023-02-06T17:59:35.498Z,99397.73
2023-02-06T18:02:03.567Z,99399.58
2023-02-06T18:04:32.060Z,99400.24
2023-02-06T18:07:00.108Z,99397.86
2023-02-06T18:09:28.077Z,99399.48
2023-02-06T18:11:56.051Z,99398.55
2023-02-06T18:14:24.122Z,99402.23
2023-02-06T18:16:52.088Z,99400.45
2023-02-06T18:19:24.166Z,99404.44
2023-02-06T18:21:52.249Z,99405.77
2023-02-06T18:24:20.195Z,99405.77
2023-02-06T18:26:48.169Z,99405.93
2023-02-06T18:29:16.235Z,99406.45
2023-02-06T18:31:44.224Z,99410.46
2023-02-06T18:34:12.586Z,99408.04
2023-02-06T18:36:40.859Z,99410.38
2023-02-06T18:39:08.834Z,99409.14
2023-02-06T18:41:55.229Z,99409.13
2023-02-06T18:44:24.851Z,99412.89
2023-02-06T18:46:53.221Z,99413.10
2023-02-06T18:49:21.187Z,99409.02
2023-02-06T18:51:49.155Z,99412.08
2023-02-06T18:54:17.116Z,99411.58
2023-02-06T18:56:45.704Z,99411.89
2023-02-06T18:59:13.574Z,99414.59
2023-02-06T19:01:43.933Z,99416.06
2023-02-06T19:04:12.069Z,99413.31
2023-02-06T19:06:42.295Z,99412.25
2023-02-06T19:09:12.205Z,99412.95
2023-02-06T19:11:41.199Z,99415.38
2023-02-06T19:14:11.424Z,99420.38
2023-02-06T19:16:40.845Z,99424.08
2023-02-06T19:19:09.719Z,99427.53
2023-02-06T19:21:38.513Z,99429.69
2023-02-06T19:24:06.758Z,99429.15
2023-02-06T19:26:34.761Z,99430.77
2023-02-06T19:29:03.041Z,99430.86
2023-02-06T19:31:32.139Z,99434.39
2023-02-06T19:34:00.915Z,99438.58
2023-02-06T19:36:30.018Z,99440.73
2023-02-06T19:38:59.608Z,99443.36
2023-02-06T19:41:29.125Z,99443.46
2023-02-06T19:43:58.013Z,99445.44
2023-02-06T19:46:26.810Z,99450.50
2023-02-06T19:48:55.330Z,99450.77
2023-02-06T19:51:25.091Z,99452.56
2023-02-06T19:53:53.610Z,99454.52
2023-02-06T19:56:26.145Z,99455.59
2023-02-06T19:58:55.135Z,99455.41
2023-02-06T20:01:23.377Z,99452.33
2023-02-06T20:03:51.590Z,99455.61
2023-02-06T20:06:19.658Z,99455.29
2023-02-06T20:08:47.579Z,99456.54
2023-02-06T20:11:17.548Z,99458.77
2023-02-06T20:13:47.461Z,99459.45
2023-02-06T20:16:16.894Z,99462.06
2023-02-06T20:18:45.189Z,99463.12
2023-02-06T20:21:21.298Z,99461.77
2023-02-06T20:23:52.652Z,99464.95
2023-02-06T20:26:21.033Z,99463.93
2023-02-06T20:28:49.097Z,99466.19
2023-02-06T20:31:17.370Z,99467.81
2023-02-06T20:33:45.774Z,99467.07
2023-02-06T20:36:16.390Z,99468.52
2023-02-06T20:38:48.697Z,99465.71
2023-02-06T20:41:17.349Z,99466.39
2023-02-06T20:43:47.975Z,99463.37
2023-02-06T20:46:17.579Z,99464.27
2023-02-06T20:48:46.222Z,99466.25
2023-02-06T20:51:14.758Z,99463.30
2023-02-06T20:53:42.715Z,99467.00
2023-02-06T20:56:11.874Z,99468.58
2023-02-06T20:58:39.877Z,99469.84
2023-02-06T21:01:17.302Z,99468.56
2023-02-06T21:03:46.163Z,99470.52
2023-02-06T21:06:14.434Z,99474.86
2023-02-06T21:08:42.891Z,99478.21
2023-02-06T21:11:10.953Z,99478.21
2023-02-06T21:13:41.950Z,99479.06
2023-02-06T21:16:13.387Z,99479.70
2023-02-06T21:18:42.785Z,99483.30
2023-02-06T21:21:12.809Z,99484.64
2023-02-06T21:23:41.775Z,99487.92
2023-02-06T21:26:10.706Z,99484.16
2023-02-06T21:28:39.476Z,99482.73
2023-02-06T21:31:09.562Z,99482.08
2023-02-06T21:33:37.771Z,99479.44
2023-02-06T21:36:07.599Z,99480.39
2023-02-06T21:38:36.162Z,99480.72
2023-02-06T21:41:05.264Z,99484.48
2023-02-06T21:43:33.568Z,99488.88
2023-02-06T21:46:02.227Z,99493.10
2023-02-06T21:48:30.616Z,99493.71
2023-02-06T21:50:58.677Z,99499.91
2023-02-06T21:53:26.749Z,99502.70
2023-02-06T21:55:55.029Z,99504.65
2023-02-06T21:58:22.992Z,99507.44
2023-02-06T22:00:50.968Z,99512.58
2023-02-06T22:03:19.693Z,99511.37
2023-02-06T22:05:47.614Z,99510.98
2023-02-06T22:08:15.629Z,99512.27
2023-02-06T22:10:43.661Z,99512.20
2023-02-06T22:13:11.562Z,99513.45
2023-02-06T22:15:39.848Z,99513.27
2023-02-06T22:18:10.233Z,99514.96
2023-02-06T22:20:38.093Z,99519.10
2023-02-06T22:23:05.983Z,99516.25
2023-02-06T22:25:33.934Z,99515.88
2023-02-06T22:28:01.940Z,99519.20
2023-02-06T22:30:29.997Z,99520.14
2023-02-06T22:32:57.936Z,99522.77
2023-02-06T22:35:26.011Z,99521.51
2023-02-06T22:37:53.840Z,99524.09
2023-02-06T22:40:21.942Z,99525.38
2023-02-06T22:42:49.916Z,99525.98
2023-02-06T22:45:17.987Z,99526.69
2023-02-06T22:47:45.926Z,99524.21
2023-02-06T22:50:14.022Z,99524.40
2023-02-06T22:53:00.936Z,99521.98
2023-02-06T22:55:48.779Z,99519.52
2023-02-06T22:58:16.745Z,99517.04
2023-02-06T23:00:44.578Z,99516.94
2023-02-06T23:03:12.591Z,99514.83
2023-02-06T23:05:40.549Z,99513.05
2023-02-06T23:08:08.524Z,99516.66
2023-02-06T23:10:36.493Z,99517.30
2023-02-06T23:13:05.185Z,99518.20
2023-02-06T23:15:33.147Z,99521.55
2023-02-06T23:18:01.023Z,99521.70
2023-02-06T23:20:28.991Z,99522.90
2023-02-06T23:22:56.954Z,99521.02
2023-02-06T23:25:25.026Z,99516.11
2023-02-06T23:27:53.023Z,99516.15
2023-02-06T23:30:21.232Z,99514.34
2023-02-06T23:32:49.145Z,99515.05
2023-02-06T23:35:17.523Z,99516.11
2023-02-06T23:37:45.491Z,99512.80
2023-02-06T23:40:13.449Z,99507.61
2023-02-06T23:42:41.311Z,99507.09
2023-02-06T23:45:09.524Z,99510.83
2023-02-06T23:47:37.569Z,99513.52
2023-02-06T23:50:05.722Z,99514.58
2023-02-06T23:52:33.509Z,99515.53
2023-02-06T23:55:01.470Z,99514.20
2023-02-06T23:57:30.573Z,99517.33
2023-02-06T23:59:58.437Z,99522.09
